Time,TemperatureF,DewpointF,PressureIn,WindDirection,WindDirectionDegrees,WindSpeedMPH,WindSpeedGustMPH,Humidity,HourlyPrecipIn,Conditions,Clouds,dailyrainin,SolarRadiationWatts/m^2,SoftwareType,DateUTC
2013-03-09 00:00:00,34.4,31.2,29.70,WSW,239,0.0,-999.0,91,-99.99,,,0.56,0.0,cwc,2013-03-09 07:00:00,
2013-03-09 00:10:00,34.2,31.0,29.71,WSW,238,0.0,-999.0,91,-99.99,,,0.01,0.0,cwc,2013-03-09 07:10:00,
2013-03-09 00:15:00,34.2,31.3,29.70,WSW,239,0.0,-999.0,92,-99.99,,,0.01,0.0,cwc,2013-03-09 07:15:00,
2013-03-09 00:25:00,34.2,31.3,29.71,WSW,239,2.0,-999.0,92,-99.99,,,0.01,0.0,cwc,2013-03-09 07:25:00,
2013-03-09 00:30:00,34.2,31.3,29.70,NNW,333,2.0,-999.0,92,-99.99,,,0.02,0.0,cwc,2013-03-09 07:30:00,
2013-03-09 00:40:00,33.8,30.9,29.70,NW,308,0.0,-999.0,92,-99.99,,,0.02,0.0,cwc,2013-03-09 07:40:00,
2013-03-09 00:45:00,33.7,30.8,29.69,NW,307,0.0,-999.0,92,-99.99,,,0.03,0.0,cwc,2013-03-09 07:45:00,
2013-03-09 00:55:00,33.7,30.8,29.69,NW,307,0.0,-999.0,92,-99.99,,,0.03,0.0,cwc,2013-03-09 07:55:00,
2013-03-09 01:00:00,33.7,30.8,29.69,NW,308,0.0,-999.0,92,-99.99,,,0.04,0.0,cwc,2013-03-09 08:00:00,
2013-03-09 01:10:00,33.7,30.8,29.69,NW,307,0.0,-999.0,92,-99.99,,,0.04,0.0,cwc,2013-03-09 08:10:00,
2013-03-09 01:15:00,33.7,30.8,29.69,NW,308,0.0,-999.0,92,-99.99,,,0.04,0.0,cwc,2013-03-09 08:15:00,
2013-03-09 01:25:00,33.7,30.8,29.69,NW,308,1.0,-999.0,92,-99.99,,,0.04,0.0,cwc,2013-03-09 08:25:00,
2013-03-09 01:30:00,33.7,30.8,29.69,NW,307,0.0,-999.0,92,-99.99,,,0.04,0.0,cwc,2013-03-09 08:30:00,
2013-03-09 01:40:00,33.6,30.7,29.68,NW,308,0.0,-999.0,92,-99.99,,,0.04,0.0,cwc,2013-03-09 08:40:00,
2013-03-09 01:45:00,33.6,31.1,29.69,NW,307,0.0,-999.0,93,-99.99,,,0.04,0.0,cwc,2013-03-09 08:45:00,
2013-03-09 01:55:00,33.7,31.2,29.69,NW,308,2.0,-999.0,93,-99.99,,,0.05,0.0,cwc,2013-03-09 08:55:00,
2013-03-09 02:00:00,33.7,30.8,29.70,SW,226,6.0,-999.0,92,-99.99,,,0.05,0.0,cwc,2013-03-09 09:00:00,
2013-03-09 02:10:00,34.1,29.4,29.70,SW,221,6.0,-999.0,87,-99.99,,,0.05,0.0,cwc,2013-03-09 09:10:00,
2013-03-09 02:15:00,34.2,28.8,29.70,WSW,244,1.0,-999.0,85,-99.99,,,0.05,0.0,cwc,2013-03-09 09:15:00,
2013-03-09 02:25:00,34.4,26.8,29.70,SW,226,4.0,-999.0,79,-99.99,,,0.05,0.0,cwc,2013-03-09 09:25:00,
2013-03-09 02:30:00,34.4,26.5,29.70,SW,222,1.0,-999.0,78,-99.99,,,0.05,0.0,cwc,2013-03-09 09:30:00,
2013-03-09 02:40:00,34.0,26.1,29.70,South,178,2.0,-999.0,78,-99.99,,,0.05,0.0,cwc,2013-03-09 09:40:00,
2013-03-09 02:45:00,33.6,26.0,29.69,SE,144,4.0,-999.0,79,-99.99,,,0.05,0.0,cwc,2013-03-09 09:45:00,
2013-03-09 02:55:00,33.2,26.4,29.70,SE,144,0.0,-999.0,81,-99.99,,,0.05,0.0,cwc,2013-03-09 09:55:00,
2013-03-09 03:00:00,33.0,26.2,29.70,SE,144,0.0,-999.0,81,-99.99,,,0.05,0.0,cwc,2013-03-09 10:00:00,
2013-03-09 03:10:00,32.8,26.0,29.71,SE,144,0.0,-999.0,81,-99.99,,,0.05,0.0,cwc,2013-03-09 10:10:00,
2013-03-09 03:15:00,32.8,26.0,29.71,South,191,3.0,-999.0,81,-99.99,,,0.05,0.0,cwc,2013-03-09 10:15:00,
2013-03-09 03:25:00,32.7,25.9,29.71,South,191,1.0,-999.0,81,-99.99,,,0.05,0.0,cwc,2013-03-09 10:25:00,
2013-03-09 03:30:00,32.4,26.6,29.71,South,191,4.0,-999.0,84,-99.99,,,0.05,0.0,cwc,2013-03-09 10:30:00,
2013-03-09 03:40:00,31.8,27.1,29.70,South,191,0.0,-999.0,87,-99.99,,,0.06,0.0,cwc,2013-03-09 10:40:00,
2013-03-09 03:45:00,31.6,27.3,29.70,South,191,0.0,-999.0,88,-99.99,,,0.06,0.0,cwc,2013-03-09 10:45:00,
2013-03-09 03:55:00,31.3,27.0,29.70,South,191,0.0,-999.0,88,-99.99,,,0.06,0.0,cwc,2013-03-09 10:55:00,
2013-03-09 04:00:00,31.1,27.1,29.69,South,190,0.0,-999.0,89,-99.99,,,0.06,0.0,cwc,2013-03-09 11:00:00,
2013-03-09 04:10:00,30.9,26.9,29.69,South,190,0.0,-999.0,89,-99.99,,,0.06,0.0,cwc,2013-03-09 11:10:00,
2013-03-09 04:15:00,30.8,27.2,29.69,South,190,0.0,-999.0,90,-99.99,,,0.06,0.0,cwc,2013-03-09 11:15:00,
2013-03-09 04:25:00,30.6,26.6,29.69,South,190,0.0,-999.0,89,-99.99,,,0.06,0.0,cwc,2013-03-09 11:25:00,
2013-03-09 04:30:00,30.5,26.5,29.69,South,190,0.0,-999.0,89,-99.99,,,0.06,0.0,cwc,2013-03-09 11:30:00,
2013-03-09 04:40:00,30.3,26.3,29.69,South,190,0.0,-999.0,89,-99.99,,,0.06,0.0,cwc,2013-03-09 11:40:00,
2013-03-09 04:45:00,30.3,26.7,29.69,South,190,0.0,-999.0,90,-99.99,,,0.06,0.0,cwc,2013-03-09 11:45:00,
2013-03-09 04:55:00,30.2,26.6,29.69,South,190,0.0,-999.0,90,-99.99,,,0.06,0.0,cwc,2013-03-09 11:55:00,
2013-03-09 05:00:00,30.1,26.5,29.69,South,190,1.0,-999.0,90,-99.99,,,0.06,0.0,cwc,2013-03-09 12:00:00,
2013-03-09 05:10:00,30.2,26.6,29.69,South,191,0.0,-999.0,90,-99.99,,,0.06,0.0,cwc,2013-03-09 12:10:00,
2013-03-09 05:15:00,30.1,26.5,29.69,South,191,1.0,-999.0,90,-99.99,,,0.06,0.0,cwc,2013-03-09 12:15:00,
2013-03-09 05:25:00,29.7,25.7,29.69,SSW,192,1.0,-999.0,89,-99.99,,,0.06,0.0,cwc,2013-03-09 12:25:00,
2013-03-09 05:30:00,29.6,26.0,29.69,South,191,1.0,-999.0,90,-99.99,,,0.06,0.0,cwc,2013-03-09 12:30:00,
2013-03-09 05:40:00,29.6,26.0,29.69,South,191,0.0,-999.0,90,-99.99,,,0.06,0.0,cwc,2013-03-09 12:40:00,
2013-03-09 05:45:00,29.6,26.0,29.69,SSW,192,0.0,-999.0,90,-99.99,,,0.06,0.0,cwc,2013-03-09 12:45:00,
2013-03-09 05:55:00,29.5,25.9,29.69,South,191,0.0,-999.0,90,-99.99,,,0.06,0.0,cwc,2013-03-09 12:55:00,
2013-03-09 06:00:00,29.5,25.9,29.69,SSW,192,3.0,-999.0,90,-99.99,,,0.06,0.0,cwc,2013-03-09 13:00:00,
2013-03-09 06:10:00,29.6,26.4,29.69,SSW,192,2.0,-999.0,91,-99.99,,,0.06,0.0,cwc,2013-03-09 13:10:00,
2013-03-09 06:15:00,29.8,26.6,29.70,SSW,192,3.0,-999.0,91,-99.99,,,0.06,0.0,cwc,2013-03-09 13:15:00,
2013-03-09 06:25:00,29.5,25.5,29.70,WNW,290,0.0,-999.0,89,-99.99,,,0.06,0.0,cwc,2013-03-09 13:25:00,
2013-03-09 06:30:00,29.3,25.3,29.70,WNW,290,0.0,-999.0,89,-99.99,,,0.06,0.0,cwc,2013-03-09 13:30:00,
2013-03-09 06:40:00,28.8,24.5,29.70,WNW,290,3.0,-999.0,88,-99.99,,,0.06,5.0,cwc,2013-03-09 13:40:00,
2013-03-09 06:45:00,28.7,24.4,29.70,WNW,290,3.0,-999.0,88,-99.99,,,0.06,14.0,cwc,2013-03-09 13:45:00,
2013-03-09 06:55:00,29.1,24.4,29.70,WNW,290,0.0,-999.0,87,-99.99,,,0.06,26.0,cwc,2013-03-09 13:55:00,
2013-03-09 07:00:00,29.3,24.6,29.70,WNW,290,0.0,-999.0,87,-99.99,,,0.06,28.0,cwc,2013-03-09 14:00:00,
2013-03-09 07:05:00,29.5,25.2,29.70,WNW,290,0.0,-999.0,88,-99.99,,,0.06,28.0,cwc,2013-03-09 14:05:00,
2013-03-09 07:10:00,29.6,25.3,29.70,WNW,283,5.0,-999.0,88,-99.99,,,0.06,42.0,cwc,2013-03-09 14:10:00,
2013-03-09 07:15:00,30.1,25.8,29.70,WNW,283,3.0,-999.0,88,-99.99,,,0.06,91.0,cwc,2013-03-09 14:15:00,
2013-03-09 07:25:00,31.0,24.5,29.71,West,259,3.0,-999.0,82,-99.99,,,0.06,95.0,cwc,2013-03-09 14:25:00,
2013-03-09 07:30:00,31.2,21.8,29.71,SSW,211,8.0,-999.0,74,-99.99,,,0.06,111.0,cwc,2013-03-09 14:30:00,
2013-03-09 07:40:00,31.2,19.0,29.72,SSW,210,8.0,-999.0,66,-99.99,,,0.06,149.0,cwc,2013-03-09 14:40:00,
2013-03-09 07:45:00,31.0,18.8,29.72,West,265,3.0,-999.0,66,-99.99,,,0.06,171.0,cwc,2013-03-09 14:45:00,
2013-03-09 07:55:00,30.9,18.3,29.72,SW,219,7.0,-999.0,65,-99.99,,,0.06,258.0,cwc,2013-03-09 14:55:00,
2013-03-09 08:00:00,31.0,20.6,29.72,SW,233,5.0,-999.0,71,-99.99,,,0.06,274.0,cwc,2013-03-09 15:00:00,
2013-03-09 08:10:00,31.3,19.8,29.73,SW,234,0.0,-999.0,68,-99.99,,,0.06,51.0,cwc,2013-03-09 15:10:00,
2013-03-09 08:15:00,31.3,19.4,29.73,SW,236,3.0,-999.0,67,-99.99,,,0.07,32.0,cwc,2013-03-09 15:15:00,
2013-03-09 08:25:00,31.2,19.7,29.73,WSW,237,10.0,-999.0,68,-99.99,,,0.07,339.0,cwc,2013-03-09 15:25:00,
2013-03-09 08:30:00,31.4,19.5,29.73,SW,229,7.0,-999.0,67,-99.99,,,0.07,360.0,cwc,2013-03-09 15:30:00,
2013-03-09 08:40:00,31.5,19.3,29.74,SW,234,9.0,-999.0,66,-99.99,,,0.07,582.0,cwc,2013-03-09 15:40:00,
2013-03-09 08:45:00,32.3,21.9,29.74,SW,219,8.0,-999.0,71,-99.99,,,0.08,610.0,cwc,2013-03-09 15:45:00,
2013-03-09 08:55:00,32.7,19.7,29.74,SW,229,5.0,-999.0,64,-99.99,,,0.08,555.0,cwc,2013-03-09 15:55:00,
2013-03-09 09:00:00,32.8,20.2,29.74,WSW,239,3.0,-999.0,65,-99.99,,,0.08,547.0,cwc,2013-03-09 16:00:00,
2013-03-09 09:05:00,32.9,20.7,29.74,WSW,249,7.0,-999.0,66,-99.99,,,0.09,596.0,cwc,2013-03-09 16:05:00,
2013-03-09 09:10:00,33.1,19.4,29.75,SW,221,9.0,-999.0,62,-99.99,,,0.09,636.0,cwc,2013-03-09 16:10:00,
2013-03-09 09:15:00,33.2,18.8,29.75,SW,235,3.0,-999.0,60,-99.99,,,0.09,615.0,cwc,2013-03-09 16:15:00,
2013-03-09 09:25:00,33.1,18.7,29.75,SW,230,10.0,-999.0,60,-99.99,,,0.10,120.0,cwc,2013-03-09 16:25:00,
2013-03-09 09:30:00,33.2,20.2,29.75,West,259,4.0,-999.0,64,-99.99,,,0.10,684.0,cwc,2013-03-09 16:30:00,
2013-03-09 09:40:00,33.9,19.9,29.75,WSW,244,0.0,-999.0,61,-99.99,,,0.11,663.0,cwc,2013-03-09 16:40:00,
2013-03-09 09:45:00,34.3,19.5,29.75,SW,227,13.0,-999.0,59,-99.99,,,0.12,547.0,cwc,2013-03-09 16:45:00,
2013-03-09 09:50:00,34.0,19.2,29.74,SW,221,5.0,-999.0,59,-99.99,,,0.12,315.0,cwc,2013-03-09 16:50:00,
2013-03-09 09:55:00,33.7,19.3,29.73,West,260,7.0,-999.0,60,-99.99,,,0.12,473.0,cwc,2013-03-09 16:55:00,
2013-03-09 10:00:00,33.7,18.9,29.73,SSW,195,2.0,-999.0,59,-99.99,,,0.12,431.0,cwc,2013-03-09 17:00:00,
2013-03-09 10:10:00,33.8,19.8,29.73,WSW,248,4.0,-999.0,61,-99.99,,,0.13,443.0,cwc,2013-03-09 17:10:00,
2013-03-09 10:15:00,34.0,19.2,29.74,SW,234,0.0,-999.0,59,-99.99,,,0.13,362.0,cwc,2013-03-09 17:15:00,
2013-03-09 10:20:00,34.1,18.6,29.74,SW,229,9.0,-999.0,57,-99.99,,,0.14,271.0,cwc,2013-03-09 17:20:00,
2013-03-09 10:25:00,34.1,19.7,29.74,South,187,1.0,-999.0,60,-99.99,,,0.14,338.0,cwc,2013-03-09 17:25:00,
2013-03-09 10:30:00,34.3,18.8,29.74,SW,230,6.0,-999.0,57,-99.99,,,0.14,554.0,cwc,2013-03-09 17:30:00,
2013-03-09 10:35:00,34.3,18.8,29.74,WSW,240,5.0,-999.0,57,-99.99,,,0.14,529.0,cwc,2013-03-09 17:35:00,
2013-03-09 10:40:00,34.4,19.6,29.74,West,266,3.0,-999.0,59,-99.99,,,0.14,571.0,cwc,2013-03-09 17:40:00,
2013-03-09 10:45:00,34.5,19.7,29.74,SW,232,6.0,-999.0,59,-99.99,,,0.15,362.0,cwc,2013-03-09 17:45:00,
2013-03-09 10:50:00,34.4,18.9,29.74,WSW,250,6.0,-999.0,57,-99.99,,,0.15,308.0,cwc,2013-03-09 17:50:00,
2013-03-09 10:55:00,34.4,18.2,29.74,SW,223,5.0,-999.0,55,-99.99,,,0.15,406.0,cwc,2013-03-09 17:55:00,
2013-03-09 11:00:00,34.3,18.8,29.74,SW,236,6.0,-999.0,57,-99.99,,,0.15,327.0,cwc,2013-03-09 18:00:00,
2013-03-09 11:05:00,34.4,18.6,29.74,SW,223,11.0,-999.0,56,-99.99,,,0.16,738.0,cwc,2013-03-09 18:05:00,
2013-03-09 11:10:00,34.7,19.2,29.73,West,273,0.0,-999.0,57,-99.99,,,0.16,543.0,cwc,2013-03-09 18:10:00,
2013-03-09 11:15:00,35.5,20.7,29.74,SSW,203,4.0,-999.0,59,-99.99,,,0.16,517.0,cwc,2013-03-09 18:15:00,
2013-03-09 11:25:00,36.6,21.1,29.74,WSW,241,4.0,-999.0,57,-99.99,,,0.17,842.0,cwc,2013-03-09 18:25:00,
2013-03-09 11:30:00,36.9,20.7,29.74,WSW,248,7.0,-999.0,55,-99.99,,,0.18,925.0,cwc,2013-03-09 18:30:00,
2013-03-09 11:40:00,36.5,19.6,29.74,WSW,244,7.0,-999.0,53,-99.99,,,0.19,250.0,cwc,2013-03-09 18:40:00,
2013-03-09 11:45:00,36.1,19.5,29.74,SW,233,8.0,-999.0,54,-99.99,,,0.19,403.0,cwc,2013-03-09 18:45:00,
2013-03-09 11:55:00,35.7,19.9,29.73,WSW,246,4.0,-999.0,56,-99.99,,,0.19,276.0,cwc,2013-03-09 18:55:00,
2013-03-09 12:00:00,35.5,18.6,29.74,West,269,5.0,-999.0,53,-99.99,,,0.19,302.0,cwc,2013-03-09 19:00:00,
2013-03-09 12:10:00,35.4,19.6,29.73,SW,232,3.0,-999.0,56,-99.99,,,0.20,213.0,cwc,2013-03-09 19:10:00,
2013-03-09 12:15:00,35.5,20.4,29.74,WSW,246,0.0,-999.0,58,-99.99,,,0.20,390.0,cwc,2013-03-09 19:15:00,
2013-03-09 12:25:00,36.0,20.9,29.73,South,182,5.0,-999.0,58,-99.99,,,0.20,338.0,cwc,2013-03-09 19:25:00,
2013-03-09 12:30:00,36.1,21.3,29.73,South,171,0.0,-999.0,59,-99.99,,,0.20,264.0,cwc,2013-03-09 19:30:00,
2013-03-09 12:40:00,36.0,20.9,29.73,ESE,103,3.0,-999.0,58,-99.99,,,0.20,355.0,cwc,2013-03-09 19:40:00,
2013-03-09 12:45:00,36.0,19.8,29.73,SSW,195,1.0,-999.0,55,-99.99,,,0.20,315.0,cwc,2013-03-09 19:45:00,
2013-03-09 12:55:00,35.8,19.6,29.73,SSW,213,2.0,-999.0,55,-99.99,,,0.21,237.0,cwc,2013-03-09 19:55:00,
2013-03-09 13:00:00,35.7,19.5,29.74,SW,235,1.0,-999.0,55,-99.99,,,0.21,295.0,cwc,2013-03-09 20:00:00,
2013-03-09 13:10:00,36.0,19.8,29.73,South,180,2.0,-999.0,55,-99.99,,,0.21,415.0,cwc,2013-03-09 20:10:00,
2013-03-09 13:15:00,36.2,19.3,29.73,SW,219,2.0,-999.0,53,-99.99,,,0.21,371.0,cwc,2013-03-09 20:15:00,
2013-03-09 13:20:00,36.2,19.3,29.74,WSW,244,1.0,-999.0,53,-99.99,,,0.21,359.0,cwc,2013-03-09 20:20:00,
2013-03-09 13:25:00,36.3,19.7,29.74,SE,140,3.0,-999.0,54,-99.99,,,0.22,355.0,cwc,2013-03-09 20:25:00,
2013-03-09 13:30:00,36.3,19.7,29.74,SW,232,0.0,-999.0,54,-99.99,,,0.22,334.0,cwc,2013-03-09 20:30:00,
2013-03-09 13:35:00,36.3,20.5,29.74,SW,224,3.0,-999.0,56,-99.99,,,0.22,304.0,cwc,2013-03-09 20:35:00,
2013-03-09 13:40:00,36.2,20.0,29.74,SW,216,3.0,-999.0,55,-99.99,,,0.22,264.0,cwc,2013-03-09 20:40:00,
2013-03-09 13:45:00,36.1,19.5,29.74,SW,232,9.0,-999.0,54,-99.99,,,0.22,250.0,cwc,2013-03-09 20:45:00,
2013-03-09 13:55:00,36.1,20.3,29.75,South,189,3.0,-999.0,56,-99.99,,,0.22,239.0,cwc,2013-03-09 20:55:00,
2013-03-09 14:00:00,36.1,20.6,29.75,SSW,196,5.0,-999.0,57,-99.99,,,0.22,269.0,cwc,2013-03-09 21:00:00,
2013-03-09 14:05:00,36.0,19.8,29.75,WSW,241,5.0,-999.0,55,-99.99,,,0.22,262.0,cwc,2013-03-09 21:05:00,
2013-03-09 14:10:00,35.7,19.9,29.75,SW,218,4.0,-999.0,56,-99.99,,,0.22,241.0,cwc,2013-03-09 21:10:00,
2013-03-09 14:20:00,35.7,19.9,29.76,ESE,114,2.0,-999.0,56,-99.99,,,0.23,251.0,cwc,2013-03-09 21:20:00,
2013-03-09 14:30:00,35.9,20.4,29.76,ENE,63,2.0,-999.0,57,-99.99,,,0.23,232.0,cwc,2013-03-09 21:30:00,
2013-03-09 14:40:00,36.0,19.8,29.76,SW,235,8.0,-999.0,55,-99.99,,,0.23,241.0,cwc,2013-03-09 21:40:00,
2013-03-09 14:45:00,35.8,19.2,29.77,SW,222,7.0,-999.0,54,-99.99,,,0.23,234.0,cwc,2013-03-09 21:45:00,
2013-03-09 14:55:00,35.7,20.2,29.76,WSW,248,2.0,-999.0,57,-99.99,,,0.23,265.0,cwc,2013-03-09 21:55:00,
2013-03-09 15:00:00,35.9,19.3,29.77,SSW,197,2.0,-999.0,54,-99.99,,,0.23,272.0,cwc,2013-03-09 22:00:00,
2013-03-09 15:05:00,36.0,20.2,29.77,SW,233,5.0,-999.0,56,-99.99,,,0.23,271.0,cwc,2013-03-09 22:05:00,
2013-03-09 15:10:00,36.0,19.8,29.77,WSW,248,4.0,-999.0,55,-99.99,,,0.23,223.0,cwc,2013-03-09 22:10:00,
2013-03-09 15:15:00,35.9,20.8,29.77,South,183,2.0,-999.0,58,-99.99,,,0.23,225.0,cwc,2013-03-09 22:15:00,
2013-03-09 15:25:00,36.1,21.0,29.78,SW,214,2.0,-999.0,58,-99.99,,,0.23,216.0,cwc,2013-03-09 22:25:00,
2013-03-09 15:30:00,36.1,21.0,29.78,WNW,294,3.0,-999.0,58,-99.99,,,0.24,179.0,cwc,2013-03-09 22:30:00,
2013-03-09 15:40:00,36.1,20.6,29.79,WSW,257,0.0,-999.0,57,-99.99,,,0.24,134.0,cwc,2013-03-09 22:40:00,
2013-03-09 15:45:00,36.0,22.0,29.79,SW,217,6.0,-999.0,61,-99.99,,,0.24,144.0,cwc,2013-03-09 22:45:00,
2013-03-09 15:55:00,36.0,20.2,29.79,SW,230,5.0,-999.0,56,-99.99,,,0.24,176.0,cwc,2013-03-09 22:55:00,
2013-03-09 16:00:00,35.9,20.8,29.80,SW,221,3.0,-999.0,58,-99.99,,,0.24,165.0,cwc,2013-03-09 23:00:00,
2013-03-09 16:10:00,35.9,20.8,29.80,WSW,248,4.0,-999.0,58,-99.99,,,0.24,146.0,cwc,2013-03-09 23:10:00,
2013-03-09 16:15:00,35.9,20.4,29.80,SW,219,8.0,-999.0,57,-99.99,,,0.24,134.0,cwc,2013-03-09 23:15:00,
2013-03-09 16:25:00,36.0,20.2,29.80,SW,236,3.0,-999.0,56,-99.99,,,0.24,160.0,cwc,2013-03-09 23:25:00,
2013-03-09 16:30:00,36.1,20.6,29.81,WSW,238,5.0,-999.0,57,-99.99,,,0.24,146.0,cwc,2013-03-09 23:30:00,
2013-03-09 16:40:00,36.0,20.5,29.81,SW,222,4.0,-999.0,57,-99.99,,,0.24,107.0,cwc,2013-03-09 23:40:00,
2013-03-09 16:45:00,36.1,20.6,29.82,SW,234,0.0,-999.0,57,-99.99,,,0.24,83.0,cwc,2013-03-09 23:45:00,
2013-03-09 16:55:00,36.1,21.0,29.82,WSW,238,8.0,-999.0,58,-99.99,,,0.24,67.0,cwc,2013-03-09 23:55:00,
2013-03-09 17:00:00,36.1,21.0,29.82,WSW,257,2.0,-999.0,58,-99.99,,,0.24,56.0,cwc,2013-03-10 00:00:00,
2013-03-09 17:10:00,36.1,20.6,29.83,WSW,252,4.0,-999.0,57,-99.99,,,0.24,39.0,cwc,2013-03-10 00:10:00,
2013-03-09 17:15:00,36.2,20.0,29.83,SW,223,8.0,-999.0,55,-99.99,,,0.24,35.0,cwc,2013-03-10 00:15:00,
2013-03-09 17:20:00,36.2,20.0,29.83,SW,227,2.0,-999.0,55,-99.99,,,0.24,30.0,cwc,2013-03-10 00:20:00,
2013-03-09 17:25:00,36.2,20.0,29.84,SW,227,4.0,-999.0,55,-99.99,,,0.24,25.0,cwc,2013-03-10 00:25:00,
2013-03-09 17:30:00,36.1,20.3,29.84,SW,227,1.0,-999.0,56,-99.99,,,0.24,21.0,cwc,2013-03-10 00:30:00,
2013-03-09 17:35:00,36.1,20.3,29.84,SW,226,3.0,-999.0,56,-99.99,,,0.24,16.0,cwc,2013-03-10 00:35:00,
2013-03-09 17:40:00,36.1,19.9,29.84,SW,219,0.0,-999.0,55,-99.99,,,0.24,12.0,cwc,2013-03-10 00:40:00,
2013-03-09 17:45:00,36.1,20.6,29.85,SW,222,6.0,-999.0,57,-99.99,,,0.24,9.0,cwc,2013-03-10 00:45:00,
2013-03-09 17:55:00,36.0,19.8,29.85,SSW,209,7.0,-999.0,55,-99.99,,,0.24,5.0,cwc,2013-03-10 00:55:00,
2013-03-09 18:00:00,35.9,19.7,29.86,SW,229,3.0,-999.0,55,-99.99,,,0.24,0.0,cwc,2013-03-10 01:00:00,
2013-03-09 18:10:00,35.7,20.2,29.87,SW,217,4.0,-999.0,57,-99.99,,,0.24,0.0,cwc,2013-03-10 01:10:00,
2013-03-09 18:15:00,35.7,20.2,29.87,SW,217,7.0,-999.0,57,-99.99,,,0.24,0.0,cwc,2013-03-10 01:15:00,
2013-03-09 18:20:00,35.7,19.9,29.88,SW,229,6.0,-999.0,56,-99.99,,,0.24,0.0,cwc,2013-03-10 01:20:00,
2013-03-09 18:25:00,35.6,20.1,29.88,SW,214,7.0,-999.0,57,-99.99,,,0.24,0.0,cwc,2013-03-10 01:25:00,
2013-03-09 18:30:00,35.6,20.1,29.88,SW,215,1.0,-999.0,57,-99.99,,,0.24,0.0,cwc,2013-03-10 01:30:00,
2013-03-09 18:40:00,35.5,20.7,29.89,SW,224,2.0,-999.0,59,-99.99,,,0.24,0.0,cwc,2013-03-10 01:40:00,
2013-03-09 18:45:00,35.4,20.6,29.89,SW,217,6.0,-999.0,59,-99.99,,,0.24,0.0,cwc,2013-03-10 01:45:00,
2013-03-09 18:55:00,35.4,21.0,29.90,WSW,238,4.0,-999.0,60,-99.99,,,0.24,0.0,cwc,2013-03-10 01:55:00,
2013-03-09 19:00:00,35.3,20.9,29.90,SW,235,6.0,-999.0,60,-99.99,,,0.24,0.0,cwc,2013-03-10 02:00:00,
2013-03-09 19:05:00,35.3,20.9,29.90,WSW,248,3.0,-999.0,60,-99.99,,,0.24,0.0,cwc,2013-03-10 02:05:00,
2013-03-09 19:15:00,35.3,20.9,29.91,SW,226,6.0,-999.0,60,-99.99,,,0.24,0.0,cwc,2013-03-10 02:15:00,
2013-03-09 19:25:00,35.2,20.8,29.91,WSW,240,7.0,-999.0,60,-99.99,,,0.24,0.0,cwc,2013-03-10 02:25:00,
2013-03-09 19:30:00,35.2,21.2,29.92,WSW,240,6.0,-999.0,61,-99.99,,,0.24,0.0,cwc,2013-03-10 02:30:00,
2013-03-09 19:40:00,35.1,21.8,29.92,WSW,249,7.0,-999.0,63,-99.99,,,0.24,0.0,cwc,2013-03-10 02:40:00,
2013-03-09 19:45:00,35.0,22.4,29.92,SW,221,7.0,-999.0,65,-99.99,,,0.24,0.0,cwc,2013-03-10 02:45:00,
2013-03-09 19:55:00,34.5,22.6,29.92,SW,219,4.0,-999.0,67,-99.99,,,0.24,0.0,cwc,2013-03-10 02:55:00,
2013-03-09 20:00:00,34.4,22.9,29.92,SW,219,5.0,-999.0,68,-99.99,,,0.24,0.0,cwc,2013-03-10 03:00:00,
2013-03-09 20:10:00,34.1,22.9,29.93,SW,222,5.0,-999.0,69,-99.99,,,0.24,0.0,cwc,2013-03-10 03:10:00,
2013-03-09 20:15:00,34.0,22.8,29.93,SW,223,3.0,-999.0,69,-99.99,,,0.24,0.0,cwc,2013-03-10 03:15:00,
2013-03-09 20:20:00,33.9,22.7,29.94,SW,223,5.0,-999.0,69,-99.99,,,0.24,0.0,cwc,2013-03-10 03:20:00,
2013-03-09 20:25:00,33.7,22.5,29.94,SW,223,3.0,-999.0,69,-99.99,,,0.24,0.0,cwc,2013-03-10 03:25:00,
2013-03-09 20:30:00,33.5,22.0,29.94,SW,223,0.0,-999.0,68,-99.99,,,0.24,0.0,cwc,2013-03-10 03:30:00,
2013-03-09 20:40:00,33.3,21.8,29.94,SW,223,0.0,-999.0,68,-99.99,,,0.24,0.0,cwc,2013-03-10 03:40:00,
2013-03-09 20:45:00,33.1,21.9,29.95,SW,223,0.0,-999.0,69,-99.99,,,0.24,0.0,cwc,2013-03-10 03:45:00,
2013-03-09 20:55:00,32.7,22.3,29.95,SW,223,0.0,-999.0,71,-99.99,,,0.24,0.0,cwc,2013-03-10 03:55:00,
2013-03-09 21:00:00,32.5,22.4,29.95,SW,223,0.0,-999.0,72,-99.99,,,0.24,0.0,cwc,2013-03-10 04:00:00,
2013-03-09 21:05:00,32.3,22.6,29.95,SW,223,0.0,-999.0,73,-99.99,,,0.24,0.0,cwc,2013-03-10 04:05:00,
2013-03-09 21:10:00,32.1,22.7,29.96,SW,223,0.0,-999.0,74,-99.99,,,0.24,0.0,cwc,2013-03-10 04:10:00,
2013-03-09 21:15:00,32.1,22.7,29.96,SW,223,0.0,-999.0,74,-99.99,,,0.24,0.0,cwc,2013-03-10 04:15:00,
2013-03-09 21:20:00,32.0,23.0,29.96,SW,223,3.0,-999.0,75,-99.99,,,0.24,0.0,cwc,2013-03-10 04:20:00,
2013-03-09 21:25:00,31.9,23.3,29.96,SW,223,2.0,-999.0,76,-99.99,,,0.24,0.0,cwc,2013-03-10 04:25:00,
2013-03-09 21:30:00,31.7,22.7,29.96,SW,223,0.0,-999.0,75,-99.99,,,0.24,0.0,cwc,2013-03-10 04:30:00,
2013-03-09 21:35:00,31.6,23.0,29.96,SW,223,0.0,-999.0,76,-99.99,,,0.24,0.0,cwc,2013-03-10 04:35:00,
2013-03-09 21:40:00,31.5,22.9,29.96,SW,223,0.0,-999.0,76,-99.99,,,0.24,0.0,cwc,2013-03-10 04:40:00,
2013-03-09 21:45:00,31.2,22.9,29.97,SW,223,0.0,-999.0,77,-99.99,,,0.24,0.0,cwc,2013-03-10 04:45:00,
2013-03-09 21:50:00,31.0,23.1,29.97,SW,223,0.0,-999.0,78,-99.99,,,0.24,0.0,cwc,2013-03-10 04:50:00,
2013-03-09 21:55:00,30.9,23.0,29.97,SW,223,0.0,-999.0,78,-99.99,,,0.24,0.0,cwc,2013-03-10 04:55:00,
2013-03-09 22:00:00,30.7,23.5,29.97,SW,223,0.0,-999.0,80,-99.99,,,0.24,0.0,cwc,2013-03-10 05:00:00,
2013-03-09 22:05:00,30.7,23.5,29.97,SW,223,0.0,-999.0,80,-99.99,,,0.24,0.0,cwc,2013-03-10 05:05:00,
2013-03-09 22:10:00,30.7,23.5,29.97,SW,223,0.0,-999.0,80,-99.99,,,0.24,0.0,cwc,2013-03-10 05:10:00,
2013-03-09 22:15:00,30.8,23.6,29.98,SW,223,0.0,-999.0,80,-99.99,,,0.24,0.0,cwc,2013-03-10 05:15:00,
2013-03-09 22:20:00,30.8,23.6,29.97,SW,223,0.0,-999.0,80,-99.99,,,0.24,0.0,cwc,2013-03-10 05:20:00,
2013-03-09 22:25:00,30.8,24.0,29.98,SW,223,0.0,-999.0,81,-99.99,,,0.24,0.0,cwc,2013-03-10 05:25:00,
2013-03-09 22:30:00,30.8,24.3,29.98,SW,223,0.0,-999.0,82,-99.99,,,0.24,0.0,cwc,2013-03-10 05:30:00,
2013-03-09 22:35:00,30.8,24.3,29.98,SW,223,0.0,-999.0,82,-99.99,,,0.24,0.0,cwc,2013-03-10 05:35:00,
2013-03-09 22:40:00,30.8,24.3,29.98,SW,223,0.0,-999.0,82,-99.99,,,0.24,0.0,cwc,2013-03-10 05:40:00,
2013-03-09 22:45:00,30.8,24.3,29.99,SW,223,0.0,-999.0,82,-99.99,,,0.24,0.0,cwc,2013-03-10 05:45:00,
2013-03-09 22:50:00,30.8,24.3,29.99,SW,223,0.0,-999.0,82,-99.99,,,0.24,0.0,cwc,2013-03-10 05:50:00,
2013-03-09 22:55:00,30.8,24.3,29.99,SW,223,0.0,-999.0,82,-99.99,,,0.24,0.0,cwc,2013-03-10 05:55:00,
2013-03-09 23:00:00,30.9,24.8,29.99,SW,223,0.0,-999.0,83,-99.99,,,0.24,0.0,cwc,2013-03-10 06:00:00,
2013-03-09 23:05:00,31.0,24.5,29.99,SW,223,0.0,-999.0,82,-99.99,,,0.24,0.0,cwc,2013-03-10 06:05:00,
2013-03-09 23:10:00,31.2,24.7,29.99,SW,223,0.0,-999.0,82,-99.99,,,0.24,0.0,cwc,2013-03-10 06:10:00,
2013-03-09 23:15:00,31.2,24.7,29.99,SW,223,0.0,-999.0,82,-99.99,,,0.24,0.0,cwc,2013-03-10 06:15:00,
2013-03-09 23:20:00,31.3,25.2,29.99,SW,223,0.0,-999.0,83,-99.99,,,0.24,0.0,cwc,2013-03-10 06:20:00,
2013-03-09 23:25:00,31.3,25.2,29.99,SW,223,0.0,-999.0,83,-99.99,,,0.24,0.0,cwc,2013-03-10 06:25:00,
2013-03-09 23:30:00,31.2,24.7,29.99,SW,223,0.0,-999.0,82,-99.99,,,0.24,0.0,cwc,2013-03-10 06:30:00,
2013-03-09 23:35:00,31.2,24.7,29.99,SW,223,0.0,-999.0,82,-99.99,,,0.24,0.0,cwc,2013-03-10 06:35:00,
2013-03-09 23:40:00,31.1,24.6,30.00,SW,223,0.0,-999.0,82,-99.99,,,0.24,0.0,cwc,2013-03-10 06:40:00,
2013-03-09 23:45:00,31.1,24.6,30.00,SW,223,0.0,-999.0,82,-99.99,,,0.24,0.0,cwc,2013-03-10 06:45:00,
2013-03-09 23:50:00,31.0,24.5,30.00,SW,223,0.0,-999.0,82,-99.99,,,0.24,0.0,cwc,2013-03-10 06:50:00,